Time;durP1;ratioP1;P1;durP2;ratioP2;P2;SDS_P1;SDS_P2;PMS_P1;PMS_P2;Temp;Humidity;BMP_temperature;BMP_pressure;BME280_temperature;BME280_humidity;BME280_pressure;Samples;Min_cycle;Max_cycle;Signal;HPM_P1;HPM_P2
2022/11/22 00:02:15;;;;;;;7.87;5.20;;;;;;;;;;4993480;28;20192;-81
2022/11/22 00:04:40;;;;;;;11.60;5.77;;;;;;;;;;4979642;28;20180;-81
2022/11/22 00:07:05;;;;;;;11.30;5.40;;;;;;;;;;4979851;28;20709;-82
2022/11/22 00:09:30;;;;;;;11.13;6.20;;;;;;;;;;4998956;28;20198;-81
2022/11/22 00:11:56;;;;;;;11.93;6.13;;;;;;;;;;4995968;28;20180;-81
2022/11/22 00:14:21;;;;;;;13.17;6.67;;;;;;;;;;4975764;28;20190;-81
2022/11/22 00:16:46;;;;;;;12.63;6.23;;;;;;;;;;4985305;28;20196;-81
2022/11/22 00:19:11;;;;;;;11.47;5.83;;;;;;;;;;4997896;28;20266;-81
2022/11/22 00:21:37;;;;;;;10.20;5.77;;;;;;;;;;4991297;28;20192;-81
2022/11/22 00:24:02;;;;;;;9.17;6.20;;;;;;;;;;4995988;28;20182;-81
2022/11/22 00:26:27;;;;;;;14.43;6.33;;;;;;;;;;4995847;28;20325;-81
2022/11/22 00:28:52;;;;;;;10.60;5.30;;;;;;;;;;4981938;28;20203;-81
2022/11/22 00:31:17;;;;;;;11.10;6.30;;;;;;;;;;4996725;28;20168;-80
2022/11/22 00:33:43;;;;;;;14.23;6.03;;;;;;;;;;4997612;28;20191;-81
2022/11/22 00:36:08;;;;;;;8.73;6.03;;;;;;;;;;4980502;28;20180;-81
2022/11/22 00:38:33;;;;;;;9.90;6.77;;;;;;;;;;4976059;28;20227;-81
2022/11/22 00:40:58;;;;;;;11.43;7.23;;;;;;;;;;4995897;28;20674;-81
2022/11/22 00:43:24;;;;;;;11.73;6.30;;;;;;;;;;4995629;28;20184;-82
2022/11/22 00:45:49;;;;;;;12.83;7.70;;;;;;;;;;4993406;28;20175;-81
2022/11/22 00:48:14;;;;;;;11.77;6.47;;;;;;;;;;4991658;28;20207;-81
2022/11/22 00:50:39;;;;;;;8.80;6.00;;;;;;;;;;4996804;28;20167;-81
2022/11/22 00:53:04;;;;;;;8.13;5.63;;;;;;;;;;4994767;28;20180;-81
2022/11/22 00:55:29;;;;;;;12.30;6.50;;;;;;;;;;4993927;28;20547;-81
2022/11/22 00:57:55;;;;;;;17.07;6.00;;;;;;;;;;4993434;28;20215;-82
2022/11/22 01:00:20;;;;;;;10.53;6.17;;;;;;;;;;4995693;28;20262;-81
2022/11/22 01:02:45;;;;;;;14.23;8.37;;;;;;;;;;4996232;28;20562;-81
2022/11/22 01:05:10;;;;;;;14.00;6.60;;;;;;;;;;4997645;28;20180;-81
2022/11/22 01:07:36;;;;;;;11.97;7.47;;;;;;;;;;4979614;28;20212;-81
2022/11/22 01:10:01;;;;;;;12.23;5.37;;;;;;;;;;4996429;28;20176;-81
2022/11/22 01:12:26;;;;;;;12.23;6.83;;;;;;;;;;4997758;28;20279;-81
2022/11/22 01:14:51;;;;;;;14.67;6.10;;;;;;;;;;5006165;28;20195;-81
2022/11/22 01:17:17;;;;;;;9.37;6.23;;;;;;;;;;5002387;28;20211;-81
2022/11/22 01:19:42;;;;;;;12.87;6.27;;;;;;;;;;4993148;28;20282;-81
2022/11/22 01:22:07;;;;;;;14.67;6.23;;;;;;;;;;4996077;28;20180;-81
2022/11/22 01:24:32;;;;;;;10.73;6.47;;;;;;;;;;4997434;28;20188;-81
2022/11/22 01:26:57;;;;;;;14.73;7.13;;;;;;;;;;4996564;28;20222;-81
2022/11/22 01:29:23;;;;;;;14.53;6.23;;;;;;;;;;4995318;28;20183;-81
2022/11/22 01:31:48;;;;;;;9.57;5.47;;;;;;;;;;4980335;28;20172;-81
2022/11/22 01:34:13;;;;;;;10.47;5.67;;;;;;;;;;4996393;28;20171;-81
2022/11/22 01:36:38;;;;;;;10.60;5.40;;;;;;;;;;4971817;28;20242;-82
2022/11/22 01:39:03;;;;;;;11.60;5.83;;;;;;;;;;4995084;28;20176;-81
2022/11/22 01:41:29;;;;;;;8.00;4.83;;;;;;;;;;4978289;28;20210;-81
2022/11/22 01:43:54;;;;;;;13.00;5.30;;;;;;;;;;4996011;28;20661;-81
2022/11/22 01:46:32;;;;;;;11.20;5.03;;;;;;;;;;4978164;28;20187;-81
2022/11/22 01:48:58;;;;;;;12.50;4.37;;;;;;;;;;4993050;28;20188;-81
2022/11/22 01:51:28;;;;;;;14.27;4.97;;;;;;;;;;4972984;28;20183;-81
2022/11/22 01:53:55;;;;;;;12.77;5.13;;;;;;;;;;4990778;28;20661;-81
2022/11/22 01:56:21;;;;;;;11.67;4.80;;;;;;;;;;4978861;28;20184;-81
2022/11/22 01:58:48;;;;;;;10.73;4.33;;;;;;;;;;4977931;28;20187;-81
2022/11/22 02:01:13;;;;;;;17.33;4.53;;;;;;;;;;4976186;28;20188;-81
2022/11/22 02:03:40;;;;;;;11.40;3.60;;;;;;;;;;4974585;28;20177;-81
2022/11/22 02:06:06;;;;;;;8.23;4.23;;;;;;;;;;4995444;28;20175;-81
2022/11/22 02:08:31;;;;;;;7.83;3.83;;;;;;;;;;4992598;28;20233;-81
2022/11/22 02:10:58;;;;;;;11.03;3.90;;;;;;;;;;4988691;28;20241;-81
2022/11/22 02:13:23;;;;;;;8.20;4.53;;;;;;;;;;4993258;28;20184;-81
2022/11/22 02:15:50;;;;;;;11.77;3.33;;;;;;;;;;4995191;28;20172;-81
2022/11/22 02:18:15;;;;;;;6.90;3.13;;;;;;;;;;4996561;28;20218;-81
2022/11/22 02:20:41;;;;;;;11.37;3.80;;;;;;;;;;4994801;28;20176;-81
2022/11/22 02:23:06;;;;;;;8.27;3.63;;;;;;;;;;4994811;28;20222;-81
2022/11/22 02:25:40;;;;;;;11.93;3.67;;;;;;;;;;4994302;28;20187;-81
2022/11/22 02:28:09;;;;;;;12.57;3.43;;;;;;;;;;4986512;28;20215;-81
2022/11/22 02:30:38;;;;;;;9.93;3.07;;;;;;;;;;4994484;28;20708;-81
2022/11/22 02:33:03;;;;;;;9.97;3.57;;;;;;;;;;4994359;28;20189;-81
2022/11/22 02:35:28;;;;;;;9.20;3.07;;;;;;;;;;4994631;28;20203;-81
2022/11/22 02:38:01;;;;;;;11.43;3.90;;;;;;;;;;4993414;28;20215;-82
2022/11/22 02:40:28;;;;;;;10.60;3.77;;;;;;;;;;4994468;28;20187;-82
2022/11/22 02:43:04;;;;;;;12.57;2.90;;;;;;;;;;4982738;28;20676;-81
2022/11/22 02:45:29;;;;;;;14.27;2.93;;;;;;;;;;4970725;28;20191;-81
2022/11/22 02:48:08;;;;;;;9.03;3.43;;;;;;;;;;4995138;28;20219;-81
2022/11/22 02:50:34;;;;;;;7.90;2.80;;;;;;;;;;4984157;28;20187;-81
2022/11/22 02:52:59;;;;;;;14.30;3.50;;;;;;;;;;4993815;28;20668;-82
2022/11/22 02:55:24;;;;;;;11.27;2.97;;;;;;;;;;4975222;28;20214;-81
2022/11/22 02:57:49;;;;;;;8.23;2.60;;;;;;;;;;4976684;28;20207;-81
2022/11/22 03:00:14;;;;;;;11.73;4.13;;;;;;;;;;4994982;28;20572;-81
2022/11/22 03:02:40;;;;;;;11.00;3.20;;;;;;;;;;4988635;28;20191;-81
2022/11/22 03:05:05;;;;;;;9.73;2.60;;;;;;;;;;4990712;28;20179;-81
2022/11/22 03:07:30;;;;;;;9.00;2.70;;;;;;;;;;4990574;28;20203;-82
2022/11/22 03:09:55;;;;;;;21.90;3.30;;;;;;;;;;4996810;28;20211;-81
2022/11/22 03:12:21;;;;;;;12.00;2.77;;;;;;;;;;4989809;28;20188;-81
2022/11/22 03:14:46;;;;;;;17.93;3.47;;;;;;;;;;4998567;28;20172;-81
2022/11/22 03:17:13;;;;;;;16.40;2.93;;;;;;;;;;4999010;28;20277;-81
2022/11/22 03:19:38;;;;;;;11.97;3.77;;;;;;;;;;4997403;28;20179;-81
2022/11/22 03:22:03;;;;;;;6.40;3.83;;;;;;;;;;4987666;28;20688;-81
2022/11/22 03:24:28;;;;;;;8.93;2.10;;;;;;;;;;4998547;28;20184;-82
2022/11/22 03:26:54;;;;;;;12.73;2.43;;;;;;;;;;4979439;28;20219;-82
2022/11/22 03:29:19;;;;;;;11.30;2.80;;;;;;;;;;4980648;28;20171;-82
2022/11/22 03:31:44;;;;;;;11.87;2.43;;;;;;;;;;4993442;28;20674;-81
2022/11/22 03:34:12;;;;;;;21.17;3.00;;;;;;;;;;4998992;28;20203;-81
2022/11/22 03:36:37;;;;;;;10.37;3.60;;;;;;;;;;4998445;28;20751;-82
2022/11/22 03:39:03;;;;;;;11.37;2.20;;;;;;;;;;4995370;28;20184;-81
2022/11/22 03:41:28;;;;;;;14.50;2.67;;;;;;;;;;4997969;28;20319;-81
2022/11/22 03:43:53;;;;;;;16.97;2.90;;;;;;;;;;4998863;28;20180;-81
2022/11/22 03:46:18;;;;;;;10.43;2.53;;;;;;;;;;4996512;28;20642;-82
2022/11/22 03:48:44;;;;;;;14.57;3.43;;;;;;;;;;4989102;28;20271;-82
2022/11/22 03:51:09;;;;;;;12.63;3.00;;;;;;;;;;4997609;28;20187;-82
2022/11/22 03:53:34;;;;;;;11.40;2.33;;;;;;;;;;4981267;28;20242;-81
2022/11/22 03:56:00;;;;;;;8.77;2.60;;;;;;;;;;4995642;28;20338;-81
2022/11/22 03:58:25;;;;;;;14.33;2.87;;;;;;;;;;4980554;28;20230;-81
2022/11/22 04:00:50;;;;;;;10.97;2.50;;;;;;;;;;4997921;28;20184;-81
2022/11/22 04:03:15;;;;;;;7.60;2.17;;;;;;;;;;4980770;28;20187;-81
2022/11/22 04:05:41;;;;;;;7.37;2.83;;;;;;;;;;4997946;28;20318;-81
2022/11/22 04:08:06;;;;;;;8.50;3.13;;;;;;;;;;4998364;28;20200;-82
2022/11/22 04:10:31;;;;;;;9.47;2.67;;;;;;;;;;4978484;28;20188;-81
2022/11/22 04:12:57;;;;;;;7.93;2.00;;;;;;;;;;4985364;28;20183;-81
2022/11/22 04:15:22;;;;;;;14.67;2.70;;;;;;;;;;4997191;28;20183;-82
2022/11/22 04:17:47;;;;;;;10.73;2.33;;;;;;;;;;4997979;28;20681;-81
2022/11/22 04:23:00;;;;;;;6.10;2.70;;;;;;;;;;4997232;28;20187;-81
2022/11/22 04:25:26;;;;;;;10.77;2.10;;;;;;;;;;4995530;28;20187;-82
2022/11/22 04:27:51;;;;;;;12.13;2.30;;;;;;;;;;4994989;28;20265;-81
2022/11/22 04:30:17;;;;;;;7.37;1.90;;;;;;;;;;4995004;28;20180;-81
2022/11/22 04:32:45;;;;;;;12.43;2.73;;;;;;;;;;4976196;28;20192;-81
2022/11/22 04:35:11;;;;;;;8.73;2.50;;;;;;;;;;4991568;28;20179;-81
2022/11/22 04:37:37;;;;;;;12.23;2.20;;;;;;;;;;5003616;28;20291;-81
2022/11/22 04:40:03;;;;;;;7.77;1.83;;;;;;;;;;5014298;28;20176;-81
2022/11/22 04:45:12;;;;;;;11.17;1.97;;;;;;;;;;4998071;28;20245;-81
2022/11/22 04:53:05;;;;;;;7.17;2.50;;;;;;;;;;4997255;28;20207;-81
2022/11/22 04:55:30;;;;;;;6.33;2.13;;;;;;;;;;4980009;28;20168;-81
2022/11/22 04:57:55;;;;;;;8.33;2.40;;;;;;;;;;4995321;28;20271;-81
2022/11/22 05:00:21;;;;;;;11.43;2.43;;;;;;;;;;4995797;28;20672;-80
2022/11/22 05:02:46;;;;;;;7.60;1.83;;;;;;;;;;4995929;28;20190;-81
2022/11/22 05:05:11;;;;;;;5.37;1.57;;;;;;;;;;4979389;28;20187;-81
2022/11/22 05:07:36;;;;;;;8.47;2.00;;;;;;;;;;4995668;28;20342;-81
2022/11/22 05:10:02;;;;;;;12.17;1.90;;;;;;;;;;4994648;28;20179;-81
2022/11/22 05:12:27;;;;;;;6.93;1.77;;;;;;;;;;4994914;28;20191;-81
2022/11/22 05:14:52;;;;;;;8.90;2.00;;;;;;;;;;4979999;28;20180;-82
2022/11/22 05:17:18;;;;;;;8.87;2.73;;;;;;;;;;4979020;28;20199;-81
2022/11/22 05:19:43;;;;;;;9.33;2.17;;;;;;;;;;5001134;28;20179;-80
2022/11/22 05:22:08;;;;;;;7.63;1.63;;;;;;;;;;4986247;28;20194;-82
2022/11/22 05:24:33;;;;;;;8.17;2.13;;;;;;;;;;4980035;28;20203;-81
2022/11/22 05:27:00;;;;;;;9.67;1.83;;;;;;;;;;4979511;28;20211;-81
2022/11/22 05:29:25;;;;;;;9.37;2.00;;;;;;;;;;4996665;28;20175;-81
2022/11/22 05:31:50;;;;;;;21.13;3.60;;;;;;;;;;4995288;28;20202;-81
2022/11/22 05:34:16;;;;;;;6.43;3.37;;;;;;;;;;4997045;28;20195;-82
2022/11/22 05:36:41;;;;;;;10.93;1.73;;;;;;;;;;4997221;28;20326;-81
2022/11/22 05:39:06;;;;;;;9.47;1.73;;;;;;;;;;4997974;28;20184;-81
2022/11/22 05:41:31;;;;;;;10.27;2.60;;;;;;;;;;4978417;28;20566;-81
2022/11/22 05:43:56;;;;;;;12.17;2.40;;;;;;;;;;4996665;28;20180;-81
2022/11/22 05:46:26;;;;;;;5.20;2.03;;;;;;;;;;4996115;28;20237;-81
2022/11/22 05:48:52;;;;;;;12.87;2.30;;;;;;;;;;4979221;28;20208;-80
2022/11/22 05:51:19;;;;;;;4.40;1.93;;;;;;;;;;4985861;28;20187;-81
2022/11/22 05:53:44;;;;;;;8.33;2.50;;;;;;;;;;4996447;28;20259;-81
2022/11/22 05:56:14;;;;;;;11.97;2.83;;;;;;;;;;4994868;28;20650;-81
2022/11/22 05:58:40;;;;;;;10.70;2.93;;;;;;;;;;4995401;28;20206;-81
2022/11/22 06:01:06;;;;;;;12.67;2.70;;;;;;;;;;4976322;28;20274;-81
2022/11/22 06:03:32;;;;;;;11.53;2.40;;;;;;;;;;4976954;28;20731;-81
2022/11/22 06:05:57;;;;;;;5.47;1.90;;;;;;;;;;4978543;28;20188;-81
2022/11/22 06:08:23;;;;;;;12.20;2.20;;;;;;;;;;4978306;28;20213;-81
2022/11/22 06:10:48;;;;;;;6.53;2.10;;;;;;;;;;4976253;28;20175;-81
2022/11/22 06:13:13;;;;;;;14.63;3.27;;;;;;;;;;4996133;28;20677;-81
2022/11/22 06:15:38;;;;;;;8.13;3.90;;;;;;;;;;4993426;28;20206;-81
2022/11/22 06:18:03;;;;;;;7.10;2.40;;;;;;;;;;4990848;28;20235;-80
2022/11/22 06:20:28;;;;;;;6.20;2.20;;;;;;;;;;4995820;28;20650;-80
2022/11/22 06:22:56;;;;;;;9.57;3.23;;;;;;;;;;4977050;28;20630;-80
2022/11/22 06:25:21;;;;;;;6.60;3.47;;;;;;;;;;4995186;28;20176;-80
2022/11/22 06:27:46;;;;;;;10.33;2.73;;;;;;;;;;4994902;28;20218;-81
2022/11/22 06:30:12;;;;;;;6.97;2.70;;;;;;;;;;4994984;28;20194;-81
2022/11/22 06:32:37;;;;;;;6.90;2.03;;;;;;;;;;4994774;28;20776;-80
2022/11/22 06:35:02;;;;;;;6.33;2.40;;;;;;;;;;5002120;28;20671;-80
2022/11/22 06:37:28;;;;;;;10.37;3.17;;;;;;;;;;4991799;28;20227;-81
2022/11/22 06:39:53;;;;;;;8.37;2.80;;;;;;;;;;4996445;28;20199;-80
2022/11/22 06:42:18;;;;;;;7.60;2.20;;;;;;;;;;4993579;28;20573;-80
2022/11/22 06:44:43;;;;;;;12.70;2.00;;;;;;;;;;4995978;28;20183;-79
2022/11/22 06:47:09;;;;;;;11.30;3.03;;;;;;;;;;4995516;28;20209;-80
2022/11/22 06:49:34;;;;;;;7.80;2.53;;;;;;;;;;4993981;28;20176;-80
2022/11/22 06:51:59;;;;;;;5.80;2.90;;;;;;;;;;4986883;28;20184;-80
2022/11/22 06:54:24;;;;;;;3.80;2.37;;;;;;;;;;4995335;28;20180;-80
2022/11/22 06:56:50;;;;;;;3.33;2.00;;;;;;;;;;4977148;28;20203;-79
2022/11/22 06:59:15;;;;;;;9.43;2.33;;;;;;;;;;4995834;28;20172;-80
2022/11/22 07:01:40;;;;;;;6.27;2.60;;;;;;;;;;4971165;28;20179;-80
2022/11/22 07:04:05;;;;;;;7.23;2.57;;;;;;;;;;4977294;28;20176;-80
2022/11/22 07:06:32;;;;;;;5.80;2.43;;;;;;;;;;4997637;28;20726;-79
2022/11/22 07:08:58;;;;;;;9.00;3.17;;;;;;;;;;4994617;28;20223;-80
2022/11/22 07:11:25;;;;;;;5.13;2.40;;;;;;;;;;4992609;28;20650;-80
2022/11/22 07:13:51;;;;;;;3.17;1.90;;;;;;;;;;4995919;28;20571;-80
2022/11/22 07:16:17;;;;;;;5.37;2.13;;;;;;;;;;4995713;28;20176;-80
2022/11/22 07:18:43;;;;;;;5.83;1.77;;;;;;;;;;4987540;28;20241;-79
2022/11/22 07:21:10;;;;;;;3.57;2.17;;;;;;;;;;4994733;28;20183;-80
2022/11/22 07:23:36;;;;;;;5.83;2.80;;;;;;;;;;4995685;28;20187;-80
2022/11/22 07:26:02;;;;;;;7.90;2.47;;;;;;;;;;4977471;28;20183;-80
2022/11/22 07:28:27;;;;;;;10.60;2.00;;;;;;;;;;4994557;28;20246;-80
2022/11/22 07:30:52;;;;;;;6.40;2.40;;;;;;;;;;4990932;28;20247;-79
2022/11/22 07:33:17;;;;;;;6.03;1.93;;;;;;;;;;4964009;28;20238;-79
2022/11/22 07:35:43;;;;;;;6.63;2.27;;;;;;;;;;4996084;28;20646;-79
2022/11/22 07:38:08;;;;;;;5.33;2.40;;;;;;;;;;4994595;28;20262;-80
2022/11/22 07:40:33;;;;;;;5.40;2.13;;;;;;;;;;4975781;28;20206;-79
2022/11/22 07:42:58;;;;;;;5.60;2.27;;;;;;;;;;4999649;28;20553;-79
2022/11/22 07:45:24;;;;;;;5.27;1.77;;;;;;;;;;4979164;28;20222;-81
2022/11/22 07:47:49;;;;;;;7.87;2.57;;;;;;;;;;4977417;28;20681;-79
2022/11/22 07:50:14;;;;;;;5.43;2.43;;;;;;;;;;4999499;28;20180;-80
2022/11/22 07:52:39;;;;;;;7.80;2.67;;;;;;;;;;4998928;28;20184;-80
2022/11/22 07:55:05;;;;;;;7.30;2.40;;;;;;;;;;4995678;28;20652;-78
2022/11/22 07:57:30;;;;;;;7.13;3.00;;;;;;;;;;4984799;28;20205;-80
2022/11/22 07:59:56;;;;;;;4.50;2.73;;;;;;;;;;4994721;28;20191;-79
2022/11/22 08:02:21;;;;;;;4.70;2.23;;;;;;;;;;5002298;28;20220;-77
2022/11/22 08:04:46;;;;;;;5.13;2.03;;;;;;;;;;4993316;28;20275;-78
2022/11/22 08:07:11;;;;;;;6.60;2.30;;;;;;;;;;4996245;28;20560;-79
2022/11/22 08:09:36;;;;;;;5.80;2.40;;;;;;;;;;4996354;28;20608;-79
2022/11/22 08:12:02;;;;;;;4.47;2.63;;;;;;;;;;4991067;28;20176;-78
2022/11/22 08:14:27;;;;;;;5.30;2.23;;;;;;;;;;4995782;28;20187;-79
2022/11/22 08:16:52;;;;;;;5.03;2.33;;;;;;;;;;4995864;28;20278;-78
2022/11/22 08:19:18;;;;;;;6.87;2.60;;;;;;;;;;4978772;28;20186;-79
2022/11/22 08:21:44;;;;;;;6.83;2.70;;;;;;;;;;4994918;28;20168;-78
2022/11/22 08:24:09;;;;;;;5.43;2.70;;;;;;;;;;4987553;28;20191;-79
2022/11/22 08:26:34;;;;;;;6.23;2.30;;;;;;;;;;4995836;28;20303;-79
2022/11/22 08:28:59;;;;;;;6.07;3.03;;;;;;;;;;4996845;28;20815;-79
2022/11/22 08:31:25;;;;;;;7.97;3.47;;;;;;;;;;4990834;28;20192;-80
2022/11/22 08:33:51;;;;;;;8.00;2.80;;;;;;;;;;4996616;28;20552;-79
2022/11/22 08:36:16;;;;;;;15.13;5.00;;;;;;;;;;4996381;28;20265;-78
2022/11/22 08:38:42;;;;;;;7.93;3.60;;;;;;;;;;4996425;28;20701;-79
2022/11/22 08:41:07;;;;;;;4.67;2.33;;;;;;;;;;4993141;28;20206;-79
2022/11/22 08:43:32;;;;;;;9.63;2.60;;;;;;;;;;4989265;28;20190;-79
2022/11/22 08:45:58;;;;;;;10.07;4.03;;;;;;;;;;4979229;28;20216;-79
2022/11/22 08:48:23;;;;;;;7.10;2.83;;;;;;;;;;4995029;28;20693;-79
2022/11/22 08:50:53;;;;;;;3.97;2.70;;;;;;;;;;4995439;28;20164;-78
2022/11/22 08:53:18;;;;;;;4.70;2.90;;;;;;;;;;4996475;28;20179;-79
2022/11/22 08:55:44;;;;;;;6.23;2.80;;;;;;;;;;4993720;28;20172;-78
2022/11/22 08:58:09;;;;;;;4.50;2.30;;;;;;;;;;4994172;28;20215;-78
2022/11/22 09:00:34;;;;;;;6.40;2.80;;;;;;;;;;4994960;28;20219;-79
2022/11/22 09:02:59;;;;;;;7.27;2.67;;;;;;;;;;4972028;28;20188;-78
2022/11/22 09:05:24;;;;;;;6.60;2.60;;;;;;;;;;4989943;28;20188;-78
2022/11/22 09:07:50;;;;;;;4.87;2.67;;;;;;;;;;4992155;28;20692;-78
2022/11/22 09:10:15;;;;;;;9.03;2.67;;;;;;;;;;4992355;28;20660;-78
2022/11/22 09:12:44;;;;;;;9.87;4.53;;;;;;;;;;4991934;28;20207;-78
2022/11/22 09:15:09;;;;;;;4.63;2.07;;;;;;;;;;4996205;28;20230;-78
2022/11/22 09:17:34;;;;;;;11.63;3.30;;;;;;;;;;4979670;28;20207;-78
2022/11/22 09:19:59;;;;;;;5.43;2.20;;;;;;;;;;4991416;28;20191;-78
2022/11/22 09:22:26;;;;;;;8.07;2.50;;;;;;;;;;4995000;28;20227;-78
2022/11/22 09:24:51;;;;;;;3.53;2.00;;;;;;;;;;4996118;28;20183;-78
2022/11/22 09:27:16;;;;;;;4.27;2.53;;;;;;;;;;5005524;22;20310;-72
2022/11/22 09:29:41;;;;;;;6.17;2.67;;;;;;;;;;4976047;28;20187;-72
2022/11/22 09:32:10;;;;;;;6.47;2.23;;;;;;;;;;4969309;28;20195;-72
2022/11/22 09:34:35;;;;;;;5.57;2.50;;;;;;;;;;4957699;28;20176;-72
2022/11/22 09:37:00;;;;;;;4.00;2.37;;;;;;;;;;4967989;28;20184;-71
2022/11/22 09:39:25;;;;;;;6.53;2.43;;;;;;;;;;4973040;28;20172;-72
2022/11/22 09:42:21;;;;;;;4.23;2.43;;;;;;;;;;4972961;28;20562;-72
2022/11/22 09:44:59;;;;;;;5.03;3.17;;;;;;;;;;4982959;28;20171;-71
2022/11/22 09:47:24;;;;;;;5.03;2.60;;;;;;;;;;4970737;28;20263;-72
2022/11/22 09:49:52;;;;;;;3.83;2.13;;;;;;;;;;4980374;28;20187;-72
2022/11/22 09:52:17;;;;;;;6.20;2.50;;;;;;;;;;4982146;28;20168;-72
2022/11/22 09:54:45;;;;;;;6.77;2.60;;;;;;;;;;4981022;28;20225;-72
2022/11/22 09:57:32;;;;;;;4.23;2.07;;;;;;;;;;4970317;28;20176;-72
2022/11/22 10:00:01;;;;;;;8.83;2.47;;;;;;;;;;4966476;28;20201;-72
2022/11/22 10:02:40;;;;;;;6.50;2.40;;;;;;;;;;4976312;28;20177;-72
2022/11/22 10:05:24;;;;;;;5.07;2.27;;;;;;;;;;4973528;28;20187;-72
2022/11/22 10:07:52;;;;;;;6.40;2.00;;;;;;;;;;4978985;28;20204;-72
2022/11/22 10:10:36;;;;;;;5.83;2.63;;;;;;;;;;4987343;28;20183;-71
2022/11/22 10:13:04;;;;;;;5.43;2.37;;;;;;;;;;4954213;28;20658;-72
2022/11/22 10:15:51;;;;;;;4.80;2.47;;;;;;;;;;4973117;28;20185;-72
2022/11/22 10:18:23;;;;;;;8.07;2.10;;;;;;;;;;4976098;28;20282;-72
2022/11/22 10:20:48;;;;;;;4.00;1.97;;;;;;;;;;4970084;28;20168;-72
2022/11/22 10:23:20;;;;;;;5.40;1.80;;;;;;;;;;4987750;28;20179;-72
2022/11/22 10:25:50;;;;;;;4.67;2.90;;;;;;;;;;4977935;28;20737;-71
2022/11/22 10:28:32;;;;;;;11.80;2.37;;;;;;;;;;4981301;28;20212;-71
2022/11/22 10:31:01;;;;;;;3.23;2.10;;;;;;;;;;4971910;28;20199;-71
2022/11/22 10:33:41;;;;;;;4.60;2.33;;;;;;;;;;4981998;28;20188;-72
2022/11/22 10:36:15;;;;;;;4.30;1.90;;;;;;;;;;4983025;28;20769;-72
2022/11/22 10:38:55;;;;;;;4.60;1.90;;;;;;;;;;4967606;28;20196;-71
2022/11/22 10:41:20;;;;;;;7.50;2.47;;;;;;;;;;4950746;28;20195;-71
2022/11/22 10:43:54;;;;;;;5.80;2.97;;;;;;;;;;4972294;28;20176;-71
2022/11/22 10:46:25;;;;;;;4.30;1.73;;;;;;;;;;4952032;28;20172;-71
2022/11/22 10:49:09;;;;;;;4.67;2.30;;;;;;;;;;4984644;28;20429;-71
2022/11/22 10:51:45;;;;;;;8.47;2.07;;;;;;;;;;4965130;28;20268;-72
2022/11/22 10:54:15;;;;;;;6.93;1.97;;;;;;;;;;4982950;28;20179;-71
2022/11/22 10:56:59;;;;;;;6.43;2.23;;;;;;;;;;4963928;28;20189;-72
2022/11/22 10:59:30;;;;;;;3.70;1.93;;;;;;;;;;4970782;28;20180;-71
2022/11/22 11:02:01;;;;;;;6.13;1.87;;;;;;;;;;4971673;28;20234;-71
2022/11/22 11:04:28;;;;;;;7.57;1.97;;;;;;;;;;4973009;28;20179;-71
2022/11/22 11:06:55;;;;;;;3.33;2.40;;;;;;;;;;4981383;28;20190;-72
2022/11/22 11:09:31;;;;;;;4.67;2.00;;;;;;;;;;4982265;28;20179;-71
2022/11/22 11:11:58;;;;;;;4.73;2.10;;;;;;;;;;4977380;28;20180;-71
2022/11/22 11:14:29;;;;;;;8.47;2.67;;;;;;;;;;4973286;28;20186;-72
2022/11/22 11:16:54;;;;;;;4.13;2.40;;;;;;;;;;4959442;28;20267;-72
2022/11/22 11:19:22;;;;;;;5.20;2.87;;;;;;;;;;4958995;28;20292;-72
2022/11/22 11:22:06;;;;;;;6.77;2.50;;;;;;;;;;4977107;28;20184;-72
2022/11/22 11:24:32;;;;;;;4.27;2.40;;;;;;;;;;4973203;28;20602;-72
2022/11/22 11:26:58;;;;;;;5.97;2.20;;;;;;;;;;4983539;28;20188;-72
2022/11/22 11:29:24;;;;;;;4.33;2.43;;;;;;;;;;4957902;28;20245;-72
2022/11/22 11:31:50;;;;;;;4.93;2.20;;;;;;;;;;4979511;28;20653;-72
2022/11/22 11:34:19;;;;;;;4.30;2.43;;;;;;;;;;4964432;28;20218;-72
2022/11/22 11:36:45;;;;;;;4.07;2.47;;;;;;;;;;4947050;28;20653;-72
2022/11/22 11:39:20;;;;;;;6.87;2.30;;;;;;;;;;4983907;28;20204;-71
2022/11/22 11:41:46;;;;;;;4.97;2.27;;;;;;;;;;4982959;28;20238;-72
2022/11/22 11:44:25;;;;;;;8.50;2.50;;;;;;;;;;4983750;28;20263;-72
2022/11/22 11:46:50;;;;;;;5.57;2.73;;;;;;;;;;4975737;28;20292;-72
2022/11/22 11:49:16;;;;;;;4.27;2.43;;;;;;;;;;4981966;28;20239;-72
2022/11/22 11:52:00;;;;;;;2.63;2.20;;;;;;;;;;4979397;28;20180;-72
2022/11/22 11:54:34;;;;;;;2.40;1.60;;;;;;;;;;4977068;28;20646;-72
2022/11/22 11:57:06;;;;;;;4.13;2.20;;;;;;;;;;4980355;28;20180;-73
2022/11/22 11:59:37;;;;;;;3.20;1.97;;;;;;;;;;4983439;28;20272;-71
2022/11/22 12:02:05;;;;;;;4.17;2.17;;;;;;;;;;4975560;28;20231;-72
2022/11/22 12:04:33;;;;;;;2.43;1.83;;;;;;;;;;4977355;28;20204;-72
2022/11/22 12:07:01;;;;;;;1.60;1.50;;;;;;;;;;4969396;28;20323;-72
2022/11/22 12:09:34;;;;;;;4.77;1.53;;;;;;;;;;4963619;28;20180;-71
2022/11/22 12:12:04;;;;;;;6.00;1.73;;;;;;;;;;4974808;28;20196;-72
2022/11/22 12:14:30;;;;;;;3.57;2.30;;;;;;;;;;4982083;28;20590;-72
2022/11/22 12:17:00;;;;;;;2.70;2.03;;;;;;;;;;4984374;28;20176;-72
2022/11/22 12:19:40;;;;;;;5.20;2.07;;;;;;;;;;4973779;28;20223;-72
2022/11/22 12:22:15;;;;;;;2.47;1.97;;;;;;;;;;4982190;28;20195;-72
2022/11/22 12:24:43;;;;;;;3.30;1.63;;;;;;;;;;4986620;28;20182;-72
2022/11/22 12:27:10;;;;;;;4.33;2.03;;;;;;;;;;4985389;28;20184;-72
2022/11/22 12:29:36;;;;;;;6.10;1.50;;;;;;;;;;4974718;28;20215;-72
2022/11/22 12:32:06;;;;;;;4.43;1.83;;;;;;;;;;4980851;28;20262;-72
2022/11/22 12:34:36;;;;;;;4.73;2.10;;;;;;;;;;4967812;28;20199;-72
2022/11/22 12:37:17;;;;;;;5.17;1.47;;;;;;;;;;4970627;28;20702;-72
2022/11/22 12:39:45;;;;;;;3.47;1.50;;;;;;;;;;4968506;28;20244;-72
2022/11/22 12:42:13;;;;;;;2.80;1.37;;;;;;;;;;4975729;28;20184;-72
2022/11/22 12:44:41;;;;;;;3.37;1.60;;;;;;;;;;4986916;28;20638;-72
2022/11/22 12:47:10;;;;;;;3.40;1.33;;;;;;;;;;4976581;28;20200;-72
2022/11/22 12:49:43;;;;;;;3.60;2.93;;;;;;;;;;4974951;28;20207;-72
2022/11/22 12:52:18;;;;;;;2.73;1.27;;;;;;;;;;4985497;28;20223;-72
2022/11/22 12:54:46;;;;;;;3.13;1.53;;;;;;;;;;4973438;28;20267;-72
2022/11/22 12:57:18;;;;;;;2.70;1.40;;;;;;;;;;4964526;28;20187;-72
2022/11/22 13:00:02;;;;;;;3.17;1.60;;;;;;;;;;4974414;28;20180;-72
2022/11/22 13:02:35;;;;;;;2.03;1.47;;;;;;;;;;4986508;28;20611;-72
2022/11/22 13:05:01;;;;;;;3.67;1.60;;;;;;;;;;4982116;28;20188;-72
2022/11/22 13:07:32;;;;;;;4.03;1.40;;;;;;;;;;4984516;28;20207;-72
2022/11/22 13:10:00;;;;;;;2.03;1.37;;;;;;;;;;4961484;28;20180;-72
2022/11/22 13:12:29;;;;;;;2.87;1.50;;;;;;;;;;4950893;28;20234;-72
2022/11/22 13:14:55;;;;;;;3.63;1.27;;;;;;;;;;4969847;28;20172;-72
2022/11/22 13:17:22;;;;;;;2.23;1.67;;;;;;;;;;4974544;28;20246;-72
2022/11/22 13:19:59;;;;;;;4.57;1.20;;;;;;;;;;4983878;28;20182;-72
2022/11/22 13:22:33;;;;;;;5.17;1.40;;;;;;;;;;4971393;28;20477;-72
2022/11/22 13:25:16;;;;;;;2.67;1.27;;;;;;;;;;4979727;28;20271;-72
2022/11/22 13:27:43;;;;;;;3.13;1.70;;;;;;;;;;4977731;28;20319;-71
2022/11/22 13:30:19;;;;;;;3.60;1.10;;;;;;;;;;4980985;28;20176;-72
2022/11/22 13:32:48;;;;;;;3.33;1.33;;;;;;;;;;4955975;28;20199;-71
2022/11/22 13:35:13;;;;;;;6.47;1.30;;;;;;;;;;4984344;28;20210;-72
2022/11/22 13:37:42;;;;;;;1.83;1.10;;;;;;;;;;4984782;28;20215;-71
2022/11/22 13:40:28;;;;;;;2.50;1.00;;;;;;;;;;4977163;28;20219;-71
2022/11/22 13:43:13;;;;;;;1.97;1.10;;;;;;;;;;4964217;28;20195;-71
2022/11/22 13:45:45;;;;;;;2.03;1.23;;;;;;;;;;4981934;28;20215;-71
2022/11/22 13:48:11;;;;;;;1.67;1.10;;;;;;;;;;4969177;28;20215;-71
2022/11/22 13:50:39;;;;;;;1.97;0.93;;;;;;;;;;4984224;28;20173;-71
2022/11/22 13:53:24;;;;;;;2.10;1.03;;;;;;;;;;4981477;28;20296;-71
2022/11/22 13:55:50;;;;;;;2.20;1.33;;;;;;;;;;4966386;28;20345;-71
2022/11/22 13:58:24;;;;;;;1.60;1.10;;;;;;;;;;4971342;28;20303;-71
2022/11/22 14:00:53;;;;;;;1.40;0.93;;;;;;;;;;4976850;28;20625;-71
2022/11/22 14:03:23;;;;;;;3.43;1.43;;;;;;;;;;4964070;28;20271;-71
2022/11/22 14:05:48;;;;;;;1.73;1.10;;;;;;;;;;4987810;28;20183;-71
2022/11/22 14:08:28;;;;;;;1.97;1.10;;;;;;;;;;4981222;28;20233;-71
2022/11/22 14:10:53;;;;;;;1.83;0.93;;;;;;;;;;4959208;28;20258;-71
2022/11/22 14:13:32;;;;;;;3.20;1.20;;;;;;;;;;4955802;28;20176;-71
2022/11/22 14:16:17;;;;;;;1.90;1.17;;;;;;;;;;4981650;28;20207;-71
2022/11/22 14:18:42;;;;;;;3.03;2.30;;;;;;;;;;4968927;28;20631;-71
2022/11/22 14:21:12;;;;;;;2.23;0.90;;;;;;;;;;4979550;28;20260;-71
2022/11/22 14:23:49;;;;;;;2.37;1.17;;;;;;;;;;4970685;28;20203;-71
2022/11/22 14:26:14;;;;;;;2.00;1.07;;;;;;;;;;4972411;28;20180;-71
2022/11/22 14:28:46;;;;;;;2.23;1.33;;;;;;;;;;4961178;28;20219;-71
2022/11/22 14:31:22;;;;;;;1.37;1.10;;;;;;;;;;4978545;28;20178;-71
2022/11/22 14:34:06;;;;;;;3.83;1.43;;;;;;;;;;4974944;28;20646;-71
2022/11/22 14:36:31;;;;;;;3.50;1.93;;;;;;;;;;4970129;28;20180;-71
2022/11/22 14:38:56;;;;;;;1.40;1.13;;;;;;;;;;4974898;28;20283;-71
2022/11/22 14:41:27;;;;;;;1.97;1.57;;;;;;;;;;4980219;28;20188;-71
2022/11/22 14:43:58;;;;;;;3.80;1.10;;;;;;;;;;4983557;28;20558;-72
2022/11/22 14:46:24;;;;;;;1.60;1.20;;;;;;;;;;4969991;28;20175;-72
2022/11/22 14:48:59;;;;;;;1.43;1.10;;;;;;;;;;4957274;28;20222;-72
2022/11/22 14:51:28;;;;;;;2.40;1.00;;;;;;;;;;4969611;28;20187;-71
2022/11/22 14:54:00;;;;;;;4.60;1.50;;;;;;;;;;4960397;28;20199;-72